La rose des vents
Données météo: Semaine 16/03/26 - 22/03/26 (S 12)
Date Horaire Temp. E. Hum. E. P.atmo. Pluie Vent Ø 1mn Direction Ensoleilleme Ev.Tr. Solaire P. de rosée Temp au vent Rafales
16/03/2026 00:00 10,4 °C 69 % 1010,5 hPa 0,0 mm 0,0 km/h (0 Bft) N 0,00 h 0,025 mm 0 W/m² 4,9 °C 10,4 °C 0,0 km/h (0 Bft)
16/03/2026 01:00 10,3 °C 67 % 1010,6 hPa 0,0 mm 0,0 km/h (0 Bft) N 0,00 h 0,025 mm 0 W/m² 4,5 °C 10,3 °C 0,0 km/h (0 Bft)
16/03/2026 02:00 10,4 °C 66 % 1010,4 hPa 0,0 mm 0,0 km/h (0 Bft) N 0,00 h 0,025 mm 0 W/m² 4,4 °C 10,4 °C 0,0 km/h (0 Bft)
16/03/2026 03:00 9,7 °C 69 % 1010,0 hPa 0,0 mm 0,0 km/h (0 Bft) N 0,00 h 0,025 mm 0 W/m² 4,3 °C 9,7 °C 0,0 km/h (0 Bft)
16/03/2026 04:00 9,4 °C 69 % 1010,8 hPa 0,0 mm 0,0 km/h (0 Bft) N 0,00 h 0,025 mm 0 W/m² 4,0 °C 9,4 °C 0,0 km/h (0 Bft)
16/03/2026 05:00 9,7 °C 67 % 1011,0 hPa 0,0 mm 0,0 km/h (0 Bft) N 0,00 h 0,025 mm 0 W/m² 3,9 °C 9,7 °C 0,0 km/h (0 Bft)
16/03/2026 06:00 9,5 °C 68 % 1011,6 hPa 0,0 mm 0,0 km/h (0 Bft) N 0,03 h 0,025 mm 9 W/m² 3,9 °C 9,5 °C 0,0 km/h (0 Bft)
16/03/2026 07:00 9,7 °C 70 % 1012,5 hPa 0,0 mm 0,0 km/h (0 Bft) N 0,23 h 0,000 mm 57 W/m² 4,4 °C 9,7 °C 0,0 km/h (0 Bft)
16/03/2026 08:00 12,1 °C 69 % 1012,8 hPa 0,0 mm 0,0 km/h (0 Bft) N 0,95 h 0,025 mm 278 W/m² 6,6 °C 12,1 °C 0,0 km/h (0 Bft)
16/03/2026 09:00 16,5 °C 60 % 1013,1 hPa 0,0 mm 0,0 km/h (0 Bft) N 1,00 h 0,152 mm 453 W/m² 8,8 °C 16,5 °C 0,0 km/h (0 Bft)
16/03/2026 10:00 18,0 °C 54 % 1013,5 hPa 0,0 mm 0,0 km/h (0 Bft) N 1,00 h 0,254 mm 585 W/m² 8,6 °C 18,0 °C 0,0 km/h (0 Bft)
16/03/2026 11:00 18,9 °C 51 % 1013,6 hPa 0,0 mm 0,0 km/h (0 Bft) N 1,00 h 0,330 mm 675 W/m² 8,5 °C 18,9 °C 0,0 km/h (0 Bft)
16/03/2026 12:00 19,8 °C 49 % 1013,5 hPa 0,0 mm 0,0 km/h (0 Bft) N 1,00 h 0,381 mm 712 W/m² 8,8 °C 19,8 °C 0,0 km/h (0 Bft)
16/03/2026 13:00 18,8 °C 51 % 1013,1 hPa 0,0 mm 0,0 km/h (0 Bft) N 0,87 h 0,406 mm 585 W/m² 8,4 °C 18,8 °C 0,0 km/h (0 Bft)
16/03/2026 14:00 19,2 °C 51 % 1012,8 hPa 0,0 mm 0,0 km/h (0 Bft) N 0,98 h 0,356 mm 597 W/m² 8,8 °C 19,2 °C 0,0 km/h (0 Bft)
16/03/2026 15:00 19,3 °C 51 % 1012,5 hPa 0,0 mm 0,0 km/h (0 Bft) N 1,00 h 0,330 mm 479 W/m² 8,8 °C 19,3 °C 0,0 km/h (0 Bft)
16/03/2026 16:00 18,6 °C 53 % 1012,6 hPa 0,0 mm 0,0 km/h (0 Bft) N 0,97 h 0,279 mm 311 W/m² 8,9 °C 18,6 °C 0,0 km/h (0 Bft)
16/03/2026 17:00 16,8 °C 56 % 1012,9 hPa 0,0 mm 0,0 km/h (0 Bft) N 0,70 h 0,178 mm 125 W/m² 7,9 °C 16,8 °C 0,0 km/h (0 Bft)
16/03/2026 18:00 14,7 °C 63 % 1013,3 hPa 0,0 mm 0,0 km/h (0 Bft) N 0,00 h 0,076 mm 20 W/m² 7,7 °C 14,7 °C 0,0 km/h (0 Bft)
16/03/2026 19:00 12,9 °C 68 % 1013,6 hPa 0,0 mm 0,0 km/h (0 Bft) N 0,00 h 0,025 mm 0 W/m² 7,2 °C 12,9 °C 0,2 km/h (0 Bft)
16/03/2026 20:00 11,8 °C 71 % 1013,7 hPa 0,0 mm 0,0 km/h (0 Bft) N 0,00 h 0,025 mm 0 W/m² 6,7 °C 11,8 °C 0,1 km/h (0 Bft)
16/03/2026 21:00 11,2 °C 74 % 1013,7 hPa 0,0 mm 0,0 km/h (0 Bft) N 0,00 h 0,025 mm 0 W/m² 6,7 °C 11,2 °C 0,0 km/h (0 Bft)
16/03/2026 22:00 10,7 °C 76 % 1013,5 hPa 0,0 mm 0,0 km/h (0 Bft) N 0,00 h 0,025 mm 0 W/m² 6,6 °C 10,7 °C 0,0 km/h (0 Bft)
16/03/2026 23:00 10,9 °C 75 % 1013,6 hPa 0,0 mm 0,0 km/h (0 Bft) N 0,00 h 0,025 mm 0 W/m² 6,6 °C 10,9 °C 0,0 km/h (0 Bft)
17/03/2026 00:00 11,0 °C 73 % 1013,5 hPa 0,0 mm 0,0 km/h (0 Bft) N 0,00 h 0,025 mm 0 W/m² 6,3 °C 11,0 °C 0,0 km/h (0 Bft)
17/03/2026 01:00 11,7 °C 67 % 1013,6 hPa 0,0 mm 0,0 km/h (0 Bft) N 0,00 h 0,025 mm 0 W/m² 5,8 °C 11,7 °C 0,0 km/h (0 Bft)
17/03/2026 02:00 12,0 °C 63 % 1013,4 hPa 0,0 mm 0,0 km/h (0 Bft) N 0,00 h 0,025 mm 0 W/m² 5,1 °C 12,0 °C 0,0 km/h (0 Bft)
17/03/2026 03:00 11,2 °C 64 % 1012,9 hPa 0,0 mm 0,0 km/h (0 Bft) N 0,00 h 0,025 mm 0 W/m² 4,6 °C 11,2 °C 0,0 km/h (0 Bft)
17/03/2026 04:00 11,3 °C 62 % 1013,0 hPa 0,0 mm 0,0 km/h (0 Bft) N 0,00 h 0,025 mm 0 W/m² 4,2 °C 11,3 °C 0,0 km/h (0 Bft)
17/03/2026 05:00 11,6 °C 56 % 1013,0 hPa 0,0 mm 0,0 km/h (0 Bft) N 0,00 h 0,025 mm 0 W/m² 3,2 °C 11,6 °C 0,0 km/h (0 Bft)
17/03/2026 06:00 11,8 °C 53 % 1013,2 hPa 0,0 mm 0,0 km/h (0 Bft) N 0,05 h 0,025 mm 11 W/m² 2,4 °C 11,8 °C 0,0 km/h (0 Bft)
17/03/2026 07:00 12,0 °C 53 % 1013,7 hPa 0,0 mm 0,0 km/h (0 Bft) N 0,10 h 0,000 mm 64 W/m² 2,7 °C 12,0 °C 0,1 km/h (0 Bft)
17/03/2026 08:00 13,1 °C 56 % 1014,0 hPa 0,0 mm 0,0 km/h (0 Bft) N 0,93 h 0,051 mm 259 W/m² 4,5 °C 13,1 °C 0,0 km/h (0 Bft)
17/03/2026 09:00 16,6 °C 49 % 1014,3 hPa 0,0 mm 0,0 km/h (0 Bft) N 1,00 h 0,127 mm 434 W/m² 5,7 °C 16,6 °C 0,0 km/h (0 Bft)
17/03/2026 10:00 20,1 °C 43 % 1014,5 hPa 0,0 mm 0,8 km/h (0 Bft) E-SE 1,00 h 0,229 mm 571 W/m² 7,2 °C 20,1 °C 1,7 km/h (1 Bft)
17/03/2026 11:00 21,6 °C 38 % 1014,5 hPa 0,0 mm 0,2 km/h (0 Bft) E-SE 1,00 h 0,356 mm 664 W/m² 6,6 °C 21,6 °C 0,3 km/h (0 Bft)
17/03/2026 12:00 20,9 °C 40 % 1014,4 hPa 0,0 mm 0,0 km/h (0 Bft) N 1,00 h 0,406 mm 704 W/m² 6,7 °C 20,9 °C 0,0 km/h (0 Bft)
17/03/2026 13:00 20,8 °C 37 % 1014,4 hPa 0,0 mm 0,0 km/h (0 Bft) N 1,00 h 0,406 mm 688 W/m² 5,6 °C 20,8 °C 0,0 km/h (0 Bft)
17/03/2026 14:00 20,6 °C 39 % 1014,0 hPa 0,0 mm 0,0 km/h (0 Bft) N 1,00 h 0,406 mm 611 W/m² 6,0 °C 20,6 °C 0,0 km/h (0 Bft)
17/03/2026 15:00 20,2 °C 40 % 1013,6 hPa 0,0 mm 0,0 km/h (0 Bft) N 1,00 h 0,356 mm 487 W/m² 6,3 °C 20,2 °C 0,0 km/h (0 Bft)
17/03/2026 16:00 19,0 °C 40 % 1013,3 hPa 0,0 mm 0,0 km/h (0 Bft) N 1,00 h 0,279 mm 327 W/m² 5,2 °C 19,0 °C 0,0 km/h (0 Bft)
17/03/2026 17:00 17,5 °C 43 % 1013,1 hPa 0,0 mm 0,0 km/h (0 Bft) N 0,85 h 0,203 mm 146 W/m² 4,8 °C 17,5 °C 0,0 km/h (0 Bft)
17/03/2026 18:00 15,1 °C 45 % 1013,1 hPa 0,0 mm 0,0 km/h (0 Bft) N 0,00 h 0,102 mm 13 W/m² 3,4 °C 15,1 °C 0,0 km/h (0 Bft)
17/03/2026 19:00 13,2 °C 52 % 1013,3 hPa 0,0 mm 0,0 km/h (0 Bft) N 0,00 h 0,025 mm 0 W/m² 3,6 °C 13,2 °C 0,6 km/h (0 Bft)
17/03/2026 20:00 11,6 °C 58 % 1013,2 hPa 0,0 mm 0,0 km/h (0 Bft) N 0,00 h 0,000 mm 0 W/m² 3,7 °C 11,6 °C 0,0 km/h (0 Bft)
17/03/2026 21:00 11,6 °C 56 % 1012,9 hPa 0,0 mm 0,0 km/h (0 Bft) N 0,00 h 0,025 mm 0 W/m² 3,1 °C 11,6 °C 0,0 km/h (0 Bft)
17/03/2026 22:00 11,3 °C 58 % 1012,5 hPa 0,0 mm 0,0 km/h (0 Bft) N 0,00 h 0,025 mm 0 W/m² 3,3 °C 11,3 °C 0,0 km/h (0 Bft)
17/03/2026 23:00 10,6 °C 59 % 1012,8 hPa 0,0 mm 0,0 km/h (0 Bft) N 0,00 h 0,025 mm 0 W/m² 2,9 °C 10,6 °C 0,0 km/h (0 Bft)
18/03/2026 00:00 10,3 °C 61 % 1012,9 hPa 0,0 mm 0,0 km/h (0 Bft) N 0,00 h 0,025 mm 0 W/m² 3,1 °C 10,3 °C 0,0 km/h (0 Bft)
18/03/2026 01:00 10,4 °C 61 % 1012,5 hPa 0,0 mm 0,0 km/h (0 Bft) N 0,00 h 0,025 mm 0 W/m² 3,1 °C 10,4 °C 0,0 km/h (0 Bft)
18/03/2026 02:00 10,3 °C 61 % 1012,1 hPa 0,0 mm 0,0 km/h (0 Bft) N 0,00 h 0,025 mm 0 W/m² 3,2 °C 10,3 °C 0,0 km/h (0 Bft)
18/03/2026 03:00 10,1 °C 64 % 1011,4 hPa 0,0 mm 0,0 km/h (0 Bft) N 0,00 h 0,025 mm 0 W/m² 3,6 °C 10,1 °C 0,0 km/h (0 Bft)
18/03/2026 04:00 9,8 °C 67 % 1011,3 hPa 0,0 mm 0,0 km/h (0 Bft) N 0,00 h 0,025 mm 0 W/m² 3,8 °C 9,8 °C 0,0 km/h (0 Bft)
18/03/2026 05:00 9,2 °C 71 % 1011,5 hPa 0,0 mm 0,0 km/h (0 Bft) N 0,00 h 0,025 mm 0 W/m² 4,3 °C 9,2 °C 0,0 km/h (0 Bft)
18/03/2026 06:00 9,1 °C 78 % 1011,8 hPa 0,0 mm 0,0 km/h (0 Bft) N 0,00 h 0,025 mm 5 W/m² 5,4 °C 9,1 °C 0,0 km/h (0 Bft)
18/03/2026 07:00 9,9 °C 78 % 1012,4 hPa 0,0 mm 0,0 km/h (0 Bft) N 0,00 h 0,000 mm 12 W/m² 6,2 °C 9,9 °C 0,0 km/h (0 Bft)
18/03/2026 08:00 10,3 °C 75 % 1013,1 hPa 0,0 mm 0,0 km/h (0 Bft) N 0,00 h 0,000 mm 9 W/m² 6,0 °C 10,3 °C 0,0 km/h (0 Bft)
18/03/2026 09:00 9,1 °C 84 % 1013,8 hPa 0,2 mm 0,0 km/h (0 Bft) N 0,00 h 0,000 mm 20 W/m² 6,6 °C 9,1 °C 0,0 km/h (0 Bft)
18/03/2026 10:00 7,4 °C 94 % 1015,0 hPa 0,6 mm 0,0 km/h (0 Bft) N 0,00 h 0,000 mm 38 W/m² 6,5 °C 7,4 °C 0,0 km/h (0 Bft)
18/03/2026 11:00 7,7 °C 96 % 1015,3 hPa 0,0 mm 0,0 km/h (0 Bft) N 0,00 h 0,025 mm 118 W/m² 7,1 °C 7,7 °C 0,0 km/h (0 Bft)
18/03/2026 12:00 8,7 °C 96 % 1014,5 hPa 0,0 mm 0,0 km/h (0 Bft) N 0,00 h 0,051 mm 222 W/m² 8,1 °C 8,7 °C 0,0 km/h (0 Bft)
18/03/2026 13:00 11,3 °C 92 % 1014,1 hPa 0,0 mm 0,0 km/h (0 Bft) N 0,20 h 0,102 mm 328 W/m² 9,9 °C 11,3 °C 0,0 km/h (0 Bft)
18/03/2026 14:00 12,3 °C 77 % 1013,6 hPa 0,0 mm 0,0 km/h (0 Bft) N 0,05 h 0,152 mm 234 W/m² 8,3 °C 12,3 °C 0,0 km/h (0 Bft)
18/03/2026 15:00 14,7 °C 54 % 1013,1 hPa 0,0 mm 0,0 km/h (0 Bft) N 1,00 h 0,127 mm 506 W/m² 5,5 °C 14,7 °C 0,0 km/h (0 Bft)
18/03/2026 16:00 15,9 °C 43 % 1012,7 hPa 0,0 mm 0,0 km/h (0 Bft) N 1,00 h 0,254 mm 333 W/m² 3,5 °C 15,9 °C 0,0 km/h (0 Bft)
18/03/2026 17:00 14,9 °C 44 % 1012,9 hPa 0,0 mm 0,0 km/h (0 Bft) N 0,87 h 0,178 mm 153 W/m² 2,8 °C 14,9 °C 0,0 km/h (0 Bft)
18/03/2026 18:00 12,4 °C 52 % 1013,7 hPa 0,0 mm 0,0 km/h (0 Bft) N 0,03 h 0,076 mm 14 W/m² 2,7 °C 12,4 °C 0,0 km/h (0 Bft)
18/03/2026 19:00 10,3 °C 61 % 1014,7 hPa 0,0 mm 0,0 km/h (0 Bft) N 0,00 h 0,025 mm 0 W/m² 3,1 °C 10,3 °C 0,0 km/h (0 Bft)
18/03/2026 20:00 9,4 °C 61 % 1015,5 hPa 0,0 mm 0,0 km/h (0 Bft) N 0,00 h 0,000 mm 0 W/m² 2,3 °C 9,4 °C 0,0 km/h (0 Bft)
18/03/2026 21:00 8,6 °C 61 % 1016,1 hPa 0,0 mm 0,0 km/h (0 Bft) N 0,00 h 0,025 mm 0 W/m² 1,5 °C 8,6 °C 0,0 km/h (0 Bft)
18/03/2026 22:00 8,0 °C 61 % 1016,3 hPa 0,0 mm 0,0 km/h (0 Bft) N 0,00 h 0,025 mm 0 W/m² 0,9 °C 8,0 °C 0,0 km/h (0 Bft)
18/03/2026 23:00 7,8 °C 62 % 1016,6 hPa 0,0 mm 0,0 km/h (0 Bft) N 0,00 h 0,025 mm 0 W/m² 1,0 °C 7,8 °C 0,0 km/h (0 Bft)
19/03/2026 00:00 7,9 °C 61 % 1016,7 hPa 0,0 mm 0,0 km/h (0 Bft) N 0,00 h 0,025 mm 0 W/m² 0,8 °C 7,9 °C 0,0 km/h (0 Bft)
19/03/2026 01:00 8,1 °C 60 % 1016,7 hPa 0,0 mm 0,0 km/h (0 Bft) N 0,00 h 0,025 mm 0 W/m² 0,7 °C 8,1 °C 0,0 km/h (0 Bft)
19/03/2026 02:00 7,9 °C 59 % 1016,6 hPa 0,0 mm 0,0 km/h (0 Bft) N 0,00 h 0,025 mm 0 W/m² 0,5 °C 7,9 °C 0,0 km/h (0 Bft)
19/03/2026 03:00 8,0 °C 59 % 1016,1 hPa 0,0 mm 0,0 km/h (0 Bft) N 0,00 h 0,025 mm 0 W/m² 0,4 °C 8,0 °C 0,0 km/h (0 Bft)
19/03/2026 04:00 8,1 °C 57 % 1015,8 hPa 0,0 mm 0,0 km/h (0 Bft) N 0,00 h 0,025 mm 0 W/m² 0,1 °C 8,1 °C 0,0 km/h (0 Bft)
19/03/2026 05:00 7,9 °C 57 % 1015,9 hPa 0,0 mm 0,0 km/h (0 Bft) N 0,00 h 0,025 mm 0 W/m² -0,1 °C 7,9 °C 0,0 km/h (0 Bft)
19/03/2026 06:00 7,9 °C 55 % 1015,8 hPa 0,0 mm 0,0 km/h (0 Bft) N 0,02 h 0,025 mm 11 W/m² -0,7 °C 7,9 °C 0,0 km/h (0 Bft)
19/03/2026 07:00 8,5 °C 54 % 1016,2 hPa 0,0 mm 0,0 km/h (0 Bft) N 0,03 h 0,000 mm 49 W/m² -0,4 °C 8,5 °C 0,0 km/h (0 Bft)
19/03/2026 08:00 10,8 °C 52 % 1016,6 hPa 0,0 mm 0,0 km/h (0 Bft) N 0,78 h 0,025 mm 244 W/m² 1,4 °C 10,8 °C 0,0 km/h (0 Bft)
19/03/2026 09:00 14,8 °C 47 % 1016,8 hPa 0,0 mm 0,0 km/h (0 Bft) N 1,00 h 0,127 mm 444 W/m² 3,5 °C 14,8 °C 0,0 km/h (0 Bft)
19/03/2026 10:00 17,9 °C 38 % 1016,6 hPa 0,0 mm 0,0 km/h (0 Bft) N 1,00 h 0,229 mm 582 W/m² 3,3 °C 17,9 °C 0,0 km/h (0 Bft)
19/03/2026 11:00 19,1 °C 34 % 1016,2 hPa 0,0 mm 0,0 km/h (0 Bft) N 1,00 h 0,330 mm 671 W/m² 3,0 °C 19,1 °C 0,0 km/h (0 Bft)
19/03/2026 12:00 19,2 °C 39 % 1015,8 hPa 0,0 mm 0,0 km/h (0 Bft) N 1,00 h 0,381 mm 704 W/m² 5,0 °C 19,2 °C 0,0 km/h (0 Bft)
19/03/2026 13:00 18,2 °C 48 % 1015,7 hPa 0,0 mm 0,0 km/h (0 Bft) N 1,00 h 0,406 mm 682 W/m² 6,8 °C 18,2 °C 0,0 km/h (0 Bft)
19/03/2026 14:00 18,3 °C 47 % 1015,3 hPa 0,0 mm 0,0 km/h (0 Bft) N 1,00 h 0,381 mm 604 W/m² 6,8 °C 18,3 °C 0,0 km/h (0 Bft)
19/03/2026 15:00 17,9 °C 44 % 1015,1 hPa 0,0 mm 0,0 km/h (0 Bft) N 1,00 h 0,330 mm 479 W/m² 5,5 °C 17,9 °C 0,0 km/h (0 Bft)
19/03/2026 16:00 17,4 °C 45 % 1014,8 hPa 0,0 mm 0,0 km/h (0 Bft) N 1,00 h 0,279 mm 320 W/m² 5,2 °C 17,4 °C 0,0 km/h (0 Bft)
19/03/2026 17:00 16,1 °C 43 % 1015,0 hPa 0,0 mm 0,0 km/h (0 Bft) N 0,87 h 0,178 mm 141 W/m² 3,6 °C 16,1 °C 0,0 km/h (0 Bft)
19/03/2026 18:00 14,1 °C 45 % 1015,0 hPa 0,0 mm 0,0 km/h (0 Bft) N 0,03 h 0,076 mm 17 W/m² 2,2 °C 14,1 °C 0,0 km/h (0 Bft)
19/03/2026 19:00 12,1 °C 51 % 1015,1 hPa 0,0 mm 0,0 km/h (0 Bft) N 0,00 h 0,025 mm 0 W/m² 2,1 °C 12,1 °C 0,0 km/h (0 Bft)
19/03/2026 20:00 10,7 °C 56 % 1015,3 hPa 0,0 mm 0,0 km/h (0 Bft) N 0,00 h 0,000 mm 0 W/m² 2,3 °C 10,7 °C 0,0 km/h (0 Bft)
19/03/2026 21:00 10,5 °C 56 % 1015,7 hPa 0,0 mm 0,0 km/h (0 Bft) N 0,00 h 0,025 mm 0 W/m² 2,2 °C 10,5 °C 0,0 km/h (0 Bft)
19/03/2026 22:00 10,4 °C 57 % 1015,7 hPa 0,0 mm 0,0 km/h (0 Bft) N 0,00 h 0,025 mm 0 W/m² 2,3 °C 10,4 °C 0,0 km/h (0 Bft)
19/03/2026 23:00 10,3 °C 58 % 1015,7 hPa 0,0 mm 0,0 km/h (0 Bft) N 0,00 h 0,025 mm 0 W/m² 2,4 °C 10,3 °C 0,0 km/h (0 Bft)
20/03/2026 00:00 9,6 °C 58 % 1015,7 hPa 0,0 mm 0,0 km/h (0 Bft) N 0,00 h 0,025 mm 0 W/m² 1,8 °C 9,6 °C 0,0 km/h (0 Bft)
20/03/2026 01:00 8,9 °C 58 % 1015,8 hPa 0,0 mm 0,0 km/h (0 Bft) N 0,00 h 0,025 mm 0 W/m² 1,2 °C 8,9 °C 0,0 km/h (0 Bft)
20/03/2026 02:00 8,8 °C 56 % 1015,5 hPa 0,0 mm 0,0 km/h (0 Bft) N 0,00 h 0,025 mm 0 W/m² 0,4 °C 8,8 °C 0,0 km/h (0 Bft)
20/03/2026 03:00 8,5 °C 55 % 1015,3 hPa 0,0 mm 0,0 km/h (0 Bft) N 0,00 h 0,025 mm 0 W/m² -0,1 °C 8,5 °C 0,0 km/h (0 Bft)
20/03/2026 04:00 8,4 °C 54 % 1015,4 hPa 0,0 mm 0,0 km/h (0 Bft) N 0,00 h 0,025 mm 0 W/m² -0,5 °C 8,4 °C 0,0 km/h (0 Bft)
20/03/2026 05:00 8,5 °C 53 % 1015,3 hPa 0,0 mm 0,0 km/h (0 Bft) N 0,00 h 0,025 mm 0 W/m² -0,5 °C 8,5 °C 0,0 km/h (0 Bft)
20/03/2026 06:00 8,3 °C 54 % 1015,5 hPa 0,0 mm 0,0 km/h (0 Bft) N 0,00 h 0,025 mm 10 W/m² -0,5 °C 8,3 °C 0,0 km/h (0 Bft)
20/03/2026 07:00 7,6 °C 58 % 1016,0 hPa 0,0 mm 0,0 km/h (0 Bft) N 0,00 h 0,000 mm 42 W/m² -0,1 °C 7,6 °C 0,0 km/h (0 Bft)
20/03/2026 08:00 9,7 °C 57 % 1016,4 hPa 0,0 mm 0,0 km/h (0 Bft) N 0,72 h 0,025 mm 247 W/m² 1,6 °C 9,7 °C 0,0 km/h (0 Bft)
20/03/2026 09:00 13,8 °C 55 % 1016,4 hPa 0,0 mm 0,0 km/h (0 Bft) N 1,00 h 0,127 mm 453 W/m² 4,8 °C 13,8 °C 0,0 km/h (0 Bft)
20/03/2026 10:00 16,3 °C 55 % 1016,3 hPa 0,0 mm 0,0 km/h (0 Bft) N 1,00 h 0,229 mm 590 W/m² 7,3 °C 16,3 °C 0,0 km/h (0 Bft)
20/03/2026 11:00 17,4 °C 51 % 1015,9 hPa 0,0 mm 0,0 km/h (0 Bft) N 1,00 h 0,330 mm 681 W/m² 7,0 °C 17,4 °C 0,0 km/h (0 Bft)
20/03/2026 12:00 17,6 °C 53 % 1015,6 hPa 0,0 mm 0,0 km/h (0 Bft) N 1,00 h 0,381 mm 714 W/m² 7,8 °C 17,6 °C 0,0 km/h (0 Bft)
20/03/2026 13:00 17,8 °C 56 % 1014,9 hPa 0,0 mm 0,0 km/h (0 Bft) N 0,78 h 0,406 mm 610 W/m² 8,8 °C 17,8 °C 0,0 km/h (0 Bft)
20/03/2026 14:00 16,8 °C 57 % 1014,3 hPa 0,0 mm 0,0 km/h (0 Bft) N 0,55 h 0,330 mm 457 W/m² 8,2 °C 16,8 °C 0,0 km/h (0 Bft)
20/03/2026 15:00 16,9 °C 54 % 1013,7 hPa 0,0 mm 0,0 km/h (0 Bft) N 1,00 h 0,279 mm 494 W/m² 7,6 °C 16,9 °C 0,0 km/h (0 Bft)
20/03/2026 16:00 16,1 °C 55 % 1013,2 hPa 0,0 mm 0,0 km/h (0 Bft) N 1,00 h 0,254 mm 321 W/m² 7,1 °C 16,1 °C 0,0 km/h (0 Bft)
20/03/2026 17:00 14,7 °C 61 % 1013,2 hPa 0,0 mm 0,0 km/h (0 Bft) N 0,87 h 0,178 mm 139 W/m² 7,1 °C 14,7 °C 0,0 km/h (0 Bft)
20/03/2026 18:00 12,5 °C 68 % 1013,3 hPa 0,0 mm 0,0 km/h (0 Bft) N 0,03 h 0,076 mm 19 W/m² 6,7 °C 12,5 °C 0,0 km/h (0 Bft)
20/03/2026 19:00 10,9 °C 74 % 1013,5 hPa 0,0 mm 0,0 km/h (0 Bft) N 0,00 h 0,025 mm 0 W/m² 6,4 °C 10,9 °C 0,0 km/h (0 Bft)
20/03/2026 20:00 9,7 °C 77 % 1013,6 hPa 0,0 mm 0,0 km/h (0 Bft) N 0,00 h 0,000 mm 0 W/m² 5,8 °C 9,7 °C 0,0 km/h (0 Bft)
20/03/2026 21:00 8,8 °C 79 % 1013,5 hPa 0,0 mm 0,0 km/h (0 Bft) N 0,00 h 0,025 mm 0 W/m² 5,4 °C 8,8 °C 0,0 km/h (0 Bft)
20/03/2026 22:00 8,3 °C 79 % 1013,7 hPa 0,0 mm 0,0 km/h (0 Bft) N 0,00 h 0,025 mm 0 W/m² 4,9 °C 8,3 °C 0,0 km/h (0 Bft)
20/03/2026 23:00 8,2 °C 76 % 1013,8 hPa 0,0 mm 0,0 km/h (0 Bft) N 0,00 h 0,025 mm 0 W/m² 4,2 °C 8,2 °C 0,0 km/h (0 Bft)
21/03/2026 00:00 8,2 °C 72 % 1013,7 hPa 0,0 mm 0,0 km/h (0 Bft) N 0,00 h 0,025 mm 0 W/m² 3,5 °C 8,2 °C 0,0 km/h (0 Bft)
21/03/2026 01:00 8,3 °C 70 % 1013,7 hPa 0,0 mm 0,0 km/h (0 Bft) N 0,00 h 0,025 mm 0 W/m² 3,2 °C 8,3 °C 0,0 km/h (0 Bft)
21/03/2026 02:00 8,8 °C 69 % 1013,3 hPa 0,0 mm 0,0 km/h (0 Bft) N 0,00 h 0,025 mm 0 W/m² 3,4 °C 8,8 °C 0,0 km/h (0 Bft)
21/03/2026 03:00 8,7 °C 70 % 1013,2 hPa 0,0 mm 0,0 km/h (0 Bft) N 0,00 h 0,025 mm 0 W/m² 3,5 °C 8,7 °C 0,0 km/h (0 Bft)
21/03/2026 04:00 8,3 °C 73 % 1012,9 hPa 0,0 mm 0,0 km/h (0 Bft) N 0,00 h 0,025 mm 0 W/m² 3,7 °C 8,3 °C 0,0 km/h (0 Bft)
21/03/2026 05:00 8,4 °C 74 % 1012,8 hPa 0,0 mm 0,0 km/h (0 Bft) N 0,00 h 0,025 mm 0 W/m² 4,1 °C 8,4 °C 0,0 km/h (0 Bft)
21/03/2026 06:00 8,1 °C 75 % 1012,8 hPa 0,0 mm 0,0 km/h (0 Bft) N 0,00 h 0,025 mm 15 W/m² 4,0 °C 8,1 °C 0,0 km/h (0 Bft)
21/03/2026 07:00 8,0 °C 79 % 1013,2 hPa 0,0 mm 0,0 km/h (0 Bft) N 0,32 h 0,000 mm 88 W/m² 4,6 °C 8,0 °C 0,0 km/h (0 Bft)
21/03/2026 08:00 10,3 °C 79 % 1013,2 hPa 0,0 mm 0,0 km/h (0 Bft) N 0,62 h 0,051 mm 218 W/m² 6,8 °C 10,3 °C 0,0 km/h (0 Bft)
21/03/2026 09:00 13,7 °C 71 % 1012,9 hPa 0,0 mm 0,0 km/h (0 Bft) N 0,68 h 0,102 mm 349 W/m² 8,6 °C 13,7 °C 0,0 km/h (0 Bft)
21/03/2026 10:00 14,8 °C 66 % 1012,7 hPa 0,0 mm 0,0 km/h (0 Bft) N 0,35 h 0,178 mm 311 W/m² 8,4 °C 14,8 °C 0,0 km/h (0 Bft)
21/03/2026 11:00 13,0 °C 72 % 1012,7 hPa 0,0 mm 0,0 km/h (0 Bft) N 0,00 h 0,152 mm 94 W/m² 8,1 °C 13,0 °C 0,0 km/h (0 Bft)
21/03/2026 12:00 12,3 °C 78 % 1012,5 hPa 0,0 mm 0,0 km/h (0 Bft) N 0,00 h 0,051 mm 67 W/m² 8,6 °C 12,3 °C 0,0 km/h (0 Bft)
21/03/2026 13:00 12,2 °C 79 % 1012,1 hPa 0,0 mm 0,0 km/h (0 Bft) N 0,00 h 0,025 mm 111 W/m² 8,7 °C 12,2 °C 0,0 km/h (0 Bft)
21/03/2026 14:00 12,7 °C 73 % 1011,7 hPa 0,0 mm 0,0 km/h (0 Bft) N 0,00 h 0,051 mm 152 W/m² 7,9 °C 12,7 °C 0,0 km/h (0 Bft)
21/03/2026 15:00 13,3 °C 67 % 1011,2 hPa 0,0 mm 0,0 km/h (0 Bft) N 0,02 h 0,076 mm 187 W/m² 7,2 °C 13,3 °C 0,0 km/h (0 Bft)
21/03/2026 16:00 13,5 °C 58 % 1010,8 hPa 0,0 mm 0,0 km/h (0 Bft) N 0,05 h 0,102 mm 162 W/m² 5,5 °C 13,5 °C 0,0 km/h (0 Bft)
21/03/2026 17:00 12,7 °C 58 % 1010,7 hPa 0,0 mm 0,0 km/h (0 Bft) N 0,10 h 0,076 mm 74 W/m² 4,6 °C 12,7 °C 0,0 km/h (0 Bft)
21/03/2026 18:00 12,0 °C 64 % 1010,7 hPa 0,0 mm 0,0 km/h (0 Bft) N 0,07 h 0,051 mm 26 W/m² 5,4 °C 12,0 °C 0,0 km/h (0 Bft)
21/03/2026 19:00 10,8 °C 67 % 1010,8 hPa 0,0 mm 0,0 km/h (0 Bft) N 0,00 h 0,025 mm 0 W/m² 4,9 °C 10,8 °C 0,0 km/h (0 Bft)
21/03/2026 20:00 10,4 °C 67 % 1011,1 hPa 0,0 mm 0,0 km/h (0 Bft) N 0,00 h 0,000 mm 0 W/m² 4,6 °C 10,4 °C 0,0 km/h (0 Bft)
21/03/2026 21:00 10,1 °C 72 % 1011,2 hPa 0,0 mm 0,0 km/h (0 Bft) N 0,00 h 0,025 mm 0 W/m² 5,3 °C 10,1 °C 0,0 km/h (0 Bft)
21/03/2026 22:00 9,4 °C 76 % 1011,3 hPa 0,0 mm 0,0 km/h (0 Bft) N 0,00 h 0,025 mm 0 W/m² 5,5 °C 9,4 °C 0,0 km/h (0 Bft)
21/03/2026 23:00 9,2 °C 75 % 1011,2 hPa 0,0 mm 0,0 km/h (0 Bft) N 0,00 h 0,025 mm 0 W/m² 5,0 °C 9,2 °C 0,0 km/h (0 Bft)
22/03/2026 00:00 9,2 °C 77 % 1011,2 hPa 0,0 mm 0,0 km/h (0 Bft) N 0,00 h 0,025 mm 0 W/m² 5,4 °C 9,2 °C 0,0 km/h (0 Bft)
22/03/2026 01:00 9,2 °C 77 % 1011,2 hPa 0,0 mm 0,0 km/h (0 Bft) N 0,00 h 0,025 mm 0 W/m² 5,3 °C 9,2 °C 0,0 km/h (0 Bft)
22/03/2026 02:00 9,0 °C 81 % 1011,2 hPa 0,2 mm 0,0 km/h (0 Bft) N 0,00 h 0,025 mm 0 W/m² 6,0 °C 9,0 °C 0,0 km/h (0 Bft)
22/03/2026 03:00 8,3 °C 89 % 1011,2 hPa 0,4 mm 0,0 km/h (0 Bft) N 0,00 h 0,025 mm 0 W/m² 6,6 °C 8,3 °C 0,0 km/h (0 Bft)
22/03/2026 04:00 7,7 °C 93 % 1011,4 hPa 1,4 mm 0,0 km/h (0 Bft) N 0,00 h 0,000 mm 0 W/m² 6,6 °C 7,7 °C 0,0 km/h (0 Bft)
22/03/2026 05:00 7,3 °C 94 % 1011,5 hPa 2,0 mm 0,0 km/h (0 Bft) N 0,00 h 0,000 mm 0 W/m² 6,4 °C 7,3 °C 0,0 km/h (0 Bft)
22/03/2026 06:00 6,8 °C 95 % 1011,4 hPa 0,0 mm 0,0 km/h (0 Bft) N 0,00 h 0,000 mm 8 W/m² 6,0 °C 6,8 °C 0,0 km/h (0 Bft)
22/03/2026 07:00 6,6 °C 96 % 1011,7 hPa 0,2 mm 0,0 km/h (0 Bft) N 0,00 h 0,000 mm 22 W/m² 5,9 °C 6,6 °C 0,0 km/h (0 Bft)
22/03/2026 08:00 6,8 °C 96 % 1011,9 hPa 0,0 mm 0,0 km/h (0 Bft) N 0,00 h 0,000 mm 53 W/m² 6,3 °C 6,8 °C 0,0 km/h (0 Bft)
22/03/2026 09:00 7,5 °C 97 % 1012,1 hPa 0,0 mm 0,0 km/h (0 Bft) N 0,00 h 0,025 mm 72 W/m² 7,0 °C 7,5 °C 0,0 km/h (0 Bft)
22/03/2026 10:00 7,7 °C 97 % 1012,6 hPa 0,8 mm 0,0 km/h (0 Bft) N 0,00 h 0,025 mm 87 W/m² 7,3 °C 7,7 °C 0,0 km/h (0 Bft)
22/03/2026 11:00 8,1 °C 97 % 1012,9 hPa 1,2 mm 0,0 km/h (0 Bft) N 0,00 h 0,025 mm 118 W/m² 7,7 °C 8,1 °C 0,0 km/h (0 Bft)
22/03/2026 12:00 8,2 °C 97 % 1013,0 hPa 0,8 mm 0,0 km/h (0 Bft) N 0,00 h 0,051 mm 132 W/m² 7,7 °C 8,2 °C 0,0 km/h (0 Bft)
22/03/2026 13:00 8,4 °C 97 % 1012,9 hPa 0,4 mm 0,0 km/h (0 Bft) N 0,00 h 0,051 mm 220 W/m² 8,0 °C 8,4 °C 0,0 km/h (0 Bft)
22/03/2026 14:00 9,1 °C 97 % 1012,2 hPa 0,0 mm 0,0 km/h (0 Bft) N 0,00 h 0,102 mm 169 W/m² 8,6 °C 9,1 °C 0,0 km/h (0 Bft)
22/03/2026 15:00 8,5 °C 95 % 1011,9 hPa 0,0 mm 0,0 km/h (0 Bft) N 0,00 h 0,076 mm 81 W/m² 7,7 °C 8,5 °C 0,0 km/h (0 Bft)
22/03/2026 16:00 8,2 °C 92 % 1012,1 hPa 0,0 mm 0,0 km/h (0 Bft) N 0,00 h 0,025 mm 49 W/m² 7,0 °C 8,2 °C 0,0 km/h (0 Bft)
22/03/2026 17:00 8,2 °C 85 % 1012,1 hPa 0,0 mm 0,0 km/h (0 Bft) N 0,00 h 0,025 mm 35 W/m² 5,9 °C 8,2 °C 0,0 km/h (0 Bft)
22/03/2026 18:00 8,1 °C 83 % 1012,2 hPa 0,0 mm 0,0 km/h (0 Bft) N 0,00 h 0,025 mm 12 W/m² 5,4 °C 8,1 °C 0,0 km/h (0 Bft)
22/03/2026 19:00 8,0 °C 82 % 1012,3 hPa 0,0 mm 0,0 km/h (0 Bft) N 0,00 h 0,000 mm 0 W/m² 5,2 °C 8,0 °C 0,0 km/h (0 Bft)
22/03/2026 20:00 7,7 °C 81 % 1012,5 hPa 0,0 mm 0,0 km/h (0 Bft) N 0,00 h 0,000 mm 0 W/m² 4,7 °C 7,7 °C 0,0 km/h (0 Bft)
22/03/2026 21:00 7,6 °C 80 % 1012,6 hPa 0,0 mm 0,0 km/h (0 Bft) N 0,00 h 0,000 mm 0 W/m² 4,3 °C 7,6 °C 0,0 km/h (0 Bft)
22/03/2026 22:00 7,5 °C 78 % 1012,9 hPa 0,0 mm 0,0 km/h (0 Bft) N 0,00 h 0,025 mm 0 W/m² 3,9 °C 7,5 °C 0,0 km/h (0 Bft)
22/03/2026 23:00 7,4 °C 79 % 1013,0 hPa 0,0 mm 0,0 km/h (0 Bft) N 0,00 h 0,025 mm 0 W/m² 4,0 °C 7,4 °C 0,0 km/h (0 Bft)
Min-Date _ 22/03/26 19/03/26 16/03/26 - 16/03/26 - - - - 19/03/26 22/03/26 16/03/26
_ Min-Heure 07:05 11:22 03:15 - 00:00 - - - - 07:01 07:05 00:00
Minimum _ 6,5 °C 32 % 1009,9 hPa - 0,0 km/h (0 Bft) - - - - -1,0 °C 6,5 °C 0,0 km/h (0 Bft)
Max-Date _ 17/03/26 22/03/26 19/03/26 22/03/26 17/03/26 - 16/03/26 16/03/26 16/03/26 18/03/26 17/03/26 17/03/26
_ Max-Heure 11:34 11:51 09:15 05:05 10:39 - 14:53 13:00 12:57 13:20 11:34 10:42
Maximum _ 22,0 °C 98 % 1016,9 hPa 2,0 mm 4,8 km/h
E-SE (1 Bft)
- 0,17 h 0,406 mm 773 W/m² 10,4 °C 22,0 °C 8,0 km/h
E-SE (2 Bft)
Moyenne _ 11,7 °C 65 % 1013,5 hPa #8,2 mm 0,0 km/h (0 Bft) E-SE #43:42 h #15,180 mm 269 W/m² 4,9 °C 11,7 °C 0,0 km/h (0 Bft)
Roquefort les pins